Decoded Metar for LFLC (CLERMONT FERRAND in FRANCE) (IATA:CFE) | Meteo·Mobile Aviation Weather
aviador You're here:

LFLC Decoded Metar

CLERMONT FERRAND in FRANCE
Report Time2019-07-19 18:30:00
UTC Time2019-07-19 18:44:19
Flight Rules vfr VFR
Wind020° at 03 kt
W.Decomp.*RWY 01: 3.0 kt HW 0.5 kt RCW
RWY 08: 1.5 kt HW 2.6 kt LCW
Visibility9999 m
Phenomena:N/A
Clouds:N/A
Expected CloudBase > 6,800 ft AGL from Temp-Dew spread
CeilingNone
Temp29°C (ISA +16)
Dew Point12°C (35% RH)
Heat Index28.2°C
AAT28.5°C
QNH1013 hPa
Density Alt3,127 ft
Elevation1,083 ft
Report Wrong Elevation
Raw Report
METAR LFLC 191830Z AUTO 02003KT CAVOK 29/12 Q1013 NOSIG=

Extra information for LFLC:More info

Metar Taf Metar & Taf Last 4 Metars F.Rules Stats Wind Profile Meteogram Temp Stats Airport Information Weather charts Add Link Nearby VenuesMetar ALERT Operation Metar Decoded Social comments